Macdona, Texas
Current Conditions -  °F | °C
As of 1:58 PM on Sunday 25 Jan 2015 (Local Time) from KSKF Reporting Station
Clear Clear  
Wind Chill: 69°   Ceiling: Unl
Heat Index: 69°   Visibility: 10mi
Dew Point: 40°   Wind: 6mph
Humidity: 35%   Direction: 330°NNW
Pressure: 30.1"   Gusts: NA
Location:  29.33°N, 98.69°W
Report Text: KSKF 251958Z AUTO 33005KT 10SM CLR 21/04 A3010 RMK AO2 SLP191 T02050044 $
Loading
Personal Weather Stations






























Interactive Weather Map New forecast layout! Learn more

10-Day Weather Forecast

Advertisements
Track Severe Weather on mobile